createdAt,value
2023-01-06T00:04:59.757Z,100928.66
2023-01-06T00:10:01.231Z,100925.81
2023-01-06T00:15:02.916Z,100926.53
2023-01-06T00:20:06.028Z,100913.22
2023-01-06T00:25:08.107Z,100923.63
2023-01-06T00:30:10.365Z,100909.47
2023-01-06T00:35:11.879Z,100914.50
2023-01-06T00:40:13.559Z,100894.22
2023-01-06T00:45:15.111Z,100886.28
2023-01-06T00:50:16.694Z,100895.75
2023-01-06T00:55:18.242Z,100908.75
2023-01-06T01:00:20.595Z,100916.19
2023-01-06T01:05:22.368Z,100923.03
2023-01-06T01:10:23.881Z,100924.22
2023-01-06T01:15:25.330Z,100918.31
2023-01-06T01:20:26.888Z,100924.53
2023-01-06T01:25:28.425Z,100935.97
2023-01-06T01:30:29.893Z,100944.63
2023-01-06T01:35:31.448Z,100942.84
2023-01-06T01:40:32.861Z,100932.75
2023-01-06T01:45:34.311Z,100934.81
2023-01-06T01:50:41.175Z,100940.72
2023-01-06T01:55:43.486Z,100941.69
2023-01-06T02:00:45.438Z,100937.47
2023-01-06T02:05:51.748Z,100935.53
2023-01-06T02:10:53.394Z,100929.41
2023-01-06T02:16:03.670Z,100923.66
2023-01-06T02:21:20.571Z,100919.34
2023-01-06T02:27:13.251Z,100909.22
2023-01-06T02:32:20.728Z,100896.00
2023-01-06T02:37:41.109Z,100897.09
2023-01-06T02:43:04.122Z,100897.09
2023-01-06T02:48:24.408Z,100891.44
2023-01-06T02:53:42.812Z,100889.75
2023-01-06T02:58:44.232Z,100893.47
2023-01-06T03:03:47.956Z,100897.31
2023-01-06T03:08:52.706Z,100891.44
2023-01-06T03:14:04.095Z,100883.50
2023-01-06T03:19:06.044Z,100881.94
2023-01-06T03:24:09.369Z,100873.78
2023-01-06T03:29:14.968Z,100876.41
2023-01-06T03:34:26.509Z,100863.59
2023-01-06T03:39:30.755Z,100853.75
2023-01-06T03:44:47.741Z,100861.78
2023-01-06T03:50:02.205Z,100865.97
2023-01-06T03:55:10.789Z,100865.00
2023-01-06T04:00:26.189Z,100867.25
2023-01-06T04:05:29.203Z,100879.53
2023-01-06T04:10:30.920Z,100880.38
2023-01-06T04:15:32.504Z,100886.94
2023-01-06T04:20:34.055Z,100869.44
2023-01-06T04:25:35.542Z,100875.81
2023-01-06T04:30:37.045Z,100874.00
2023-01-06T04:35:38.515Z,100878.66
2023-01-06T04:40:42.394Z,100862.81
2023-01-06T04:45:44.232Z,100850.44
2023-01-06T04:50:45.832Z,100848.75
2023-01-06T04:55:47.302Z,100840.22
2023-01-06T05:00:49.070Z,100857.88
2023-01-06T05:05:50.535Z,100857.00
2023-01-06T05:11:00.075Z,100854.50
2023-01-06T05:16:06.674Z,100840.78
2023-01-06T05:21:08.482Z,100832.63
2023-01-06T05:26:17.061Z,100834.91
2023-01-06T05:31:19.004Z,100856.53
2023-01-06T05:36:20.514Z,100846.44
2023-01-06T05:41:22.277Z,100838.16
2023-01-06T05:46:23.871Z,100840.06
2023-01-06T05:51:25.368Z,100836.59
2023-01-06T05:56:27.533Z,100844.38
2023-01-06T06:01:31.011Z,100833.34
2023-01-06T06:06:32.687Z,100837.53
2023-01-06T06:11:34.227Z,100839.00
2023-01-06T06:16:35.886Z,100828.19
2023-01-06T06:21:37.427Z,100830.84
2023-01-06T06:26:38.857Z,100838.16
2023-01-06T06:31:40.340Z,100836.59
2023-01-06T06:36:42.984Z,100843.66
2023-01-06T06:41:44.474Z,100838.38
2023-01-06T06:46:46.028Z,100831.66
2023-01-06T06:51:47.441Z,100832.63
2023-01-06T06:56:48.860Z,100825.44
2023-01-06T07:01:50.621Z,100831.31
2023-01-06T07:06:52.270Z,100841.75
2023-01-06T07:11:54.114Z,100851.72
2023-01-06T07:16:58.083Z,100855.56
2023-01-06T07:21:59.589Z,100849.22
2023-01-06T07:27:01.091Z,100861.44
2023-01-06T07:32:02.644Z,100868.00
2023-01-06T07:37:04.167Z,100861.44
2023-01-06T07:42:10.841Z,100859.97
2023-01-06T07:47:12.378Z,100847.72
2023-01-06T07:52:13.859Z,100854.91
2023-01-06T07:57:17.305Z,100852.13
2023-01-06T08:02:20.908Z,100856.22
2023-01-06T08:07:22.789Z,100854.19
2023-01-06T08:12:24.327Z,100841.72
2023-01-06T08:17:25.890Z,100859.47
2023-01-06T08:22:27.400Z,100849.97
2023-01-06T08:27:28.859Z,100850.13
2023-01-06T08:32:30.436Z,100846.53
2023-01-06T08:37:32.065Z,100866.44
2023-01-06T08:42:33.905Z,100852.41
2023-01-06T08:47:36.021Z,100861.88
2023-01-06T08:52:37.477Z,100855.50
2023-01-06T08:57:38.972Z,100870.06
2023-01-06T09:02:40.457Z,100882.94
2023-01-06T09:07:42.039Z,100881.25
2023-01-06T09:12:43.775Z,100885.44
2023-01-06T09:17:45.407Z,100894.09
2023-01-06T09:22:46.956Z,100898.31
2023-01-06T09:27:48.519Z,100900.72
2023-01-06T09:32:49.947Z,100895.53
2023-01-06T09:37:52.747Z,100896.88
2023-01-06T09:43:05.899Z,100906.50
2023-01-06T09:48:15.514Z,100899.88
2023-01-06T09:53:22.385Z,100894.22
2023-01-06T09:58:39.241Z,100908.28
2023-01-06T10:03:47.613Z,100916.44
2023-01-06T10:09:11.733Z,100922.66
2023-01-06T10:14:40.867Z,100926.69
2023-01-06T10:19:42.330Z,100916.63
2023-01-06T10:24:54.959Z,100907.75
2023-01-06T10:29:59.161Z,100900.44
2023-01-06T10:35:01.859Z,100893.78
2023-01-06T10:40:26.824Z,100875.66
2023-01-06T10:45:33.976Z,100870.69
2023-01-06T10:50:35.529Z,100868.56
2023-01-06T10:55:37.337Z,100858.06
2023-01-06T11:00:55.024Z,100854.94
2023-01-06T11:06:05.391Z,100849.91
2023-01-06T11:11:26.723Z,100860.00
2023-01-06T11:16:32.170Z,100860.53
2023-01-06T11:21:51.608Z,100860.72
2023-01-06T11:26:58.887Z,100857.25
2023-01-06T11:32:29.545Z,100859.97
2023-01-06T11:37:42.040Z,100857.25
2023-01-06T11:42:47.729Z,100857.38
2023-01-06T11:47:49.649Z,100857.97
2023-01-06T11:53:03.456Z,100850.84
2023-01-06T11:58:15.317Z,100840.41
2023-01-06T12:03:20.333Z,100831.41
2023-01-06T12:08:26.556Z,100838.91
2023-01-06T12:13:29.243Z,100849.06
2023-01-06T12:18:34.876Z,100845.81
2023-01-06T12:23:38.545Z,100840.38
2023-01-06T12:28:44.699Z,100836.25
2023-01-06T12:33:59.988Z,100843.94
2023-01-06T12:39:19.003Z,100841.88
2023-01-06T12:44:45.610Z,100839.72
2023-01-06T12:49:53.982Z,100858.41
2023-01-06T12:54:58.312Z,100850.19
2023-01-06T13:00:28.527Z,100854.16
2023-01-06T13:05:50.548Z,100852.91
2023-01-06T13:11:17.592Z,100839.94
2023-01-06T13:16:36.821Z,100846.13
2023-01-06T13:21:40.669Z,100833.28
2023-01-06T13:27:20.545Z,100840.53
2023-01-06T13:32:52.861Z,100830.91
2023-01-06T13:38:06.568Z,100830.47
2023-01-06T13:43:24.591Z,100830.50
2023-01-06T13:48:34.555Z,100825.19
2023-01-06T13:53:39.049Z,100822.69
2023-01-06T13:58:42.949Z,100827.84
2023-01-06T14:03:45.657Z,100828.56
2023-01-06T14:08:55.432Z,100822.94
2023-01-06T14:14:19.789Z,100821.84
2023-01-06T14:19:30.931Z,100837.34
2023-01-06T14:24:35.939Z,100831.00
2023-01-06T14:29:40.588Z,100837.63
2023-01-06T14:34:49.149Z,100827.66
2023-01-06T14:39:54.149Z,100834.63
2023-01-06T14:45:07.428Z,100833.78
2023-01-06T14:50:20.428Z,100839.09
2023-01-06T14:55:24.109Z,100839.56
2023-01-06T15:00:28.178Z,100852.09
2023-01-06T15:05:35.793Z,100858.22
2023-01-06T15:10:43.472Z,100872.38
2023-01-06T15:15:46.506Z,100864.72
2023-01-06T15:20:48.269Z,100881.44
2023-01-06T15:25:51.843Z,100885.19
2023-01-06T15:30:56.625Z,100889.38
2023-01-06T15:35:58.753Z,100882.97
2023-01-06T15:41:01.782Z,100887.69
2023-01-06T15:46:11.159Z,100886.28
2023-01-06T15:51:15.939Z,100881.59
2023-01-06T15:56:26.265Z,100886.41
2023-01-06T16:01:27.884Z,100882.69
2023-01-06T16:06:32.858Z,100883.41
2023-01-06T16:11:34.331Z,100873.22
2023-01-06T16:16:38.598Z,100864.41
2023-01-06T16:21:42.663Z,100863.13
2023-01-06T16:26:52.311Z,100857.81
2023-01-06T16:31:54.319Z,100856.13
2023-01-06T16:37:00.965Z,100857.56
2023-01-06T16:42:21.444Z,100850.81
2023-01-06T16:47:22.972Z,100857.56
2023-01-06T16:52:25.735Z,100845.25
2023-01-06T16:57:27.582Z,100848.84
2023-01-06T17:02:29.170Z,100855.72
2023-01-06T17:07:31.055Z,100855.63
2023-01-06T17:12:34.377Z,100854.94
2023-01-06T17:17:39.065Z,100853.47
2023-01-06T17:22:41.068Z,100850.72
2023-01-06T17:27:45.840Z,100849.78
2023-01-06T17:32:47.877Z,100843.03
2023-01-06T17:37:49.456Z,100842.03
2023-01-06T17:43:01.424Z,100847.97
2023-01-06T17:48:03.531Z,100854.81
2023-01-06T17:53:29.534Z,100858.03
2023-01-06T17:58:32.195Z,100868.09
2023-01-06T18:03:37.302Z,100864.94
2023-01-06T18:08:38.967Z,100868.19
2023-01-06T18:13:41.992Z,100865.97
2023-01-06T18:18:43.563Z,100867.75
2023-01-06T18:23:51.090Z,100866.31
2023-01-06T18:29:11.432Z,100861.66
2023-01-06T18:34:39.638Z,100865.72
2023-01-06T18:39:46.041Z,100876.41
2023-01-06T18:44:47.610Z,100888.78
2023-01-06T18:49:50.799Z,100887.13
2023-01-06T18:54:55.227Z,100892.19
2023-01-06T19:00:27.445Z,100895.44
2023-01-06T19:05:28.887Z,100902.63
2023-01-06T19:10:30.459Z,100900.97
2023-01-06T19:15:32.191Z,100899.50
2023-01-06T19:20:38.588Z,100893.72
2023-01-06T19:25:42.078Z,100880.88
2023-01-06T19:30:53.745Z,100881.88
2023-01-06T19:36:13.933Z,100897.47
2023-01-06T19:41:25.022Z,100896.38
2023-01-06T19:46:26.687Z,100892.91
2023-01-06T19:51:30.258Z,100887.63
2023-01-06T19:56:40.913Z,100877.75
2023-01-06T20:01:43.162Z,100871.53
2023-01-06T20:06:44.706Z,100868.50
2023-01-06T20:11:48.837Z,100865.63
2023-01-06T20:16:50.496Z,100867.19
2023-01-06T20:21:52.113Z,100866.47
2023-01-06T20:26:53.591Z,100868.28
2023-01-06T20:31:55.186Z,100867.19
2023-01-06T20:36:56.678Z,100868.63
2023-01-06T20:41:58.292Z,100867.78
2023-01-06T20:46:59.755Z,100863.59
2023-01-06T20:52:01.227Z,100859.84
2023-01-06T20:57:02.721Z,100851.56
2023-01-06T21:02:04.455Z,100856.88
2023-01-06T21:07:06.131Z,100841.94
2023-01-06T21:12:07.878Z,100856.47
2023-01-06T21:17:09.503Z,100870.44
2023-01-06T21:22:11.043Z,100868.88
2023-01-06T21:27:12.599Z,100879.06
2023-01-06T21:32:14.232Z,100878.63
2023-01-06T21:37:15.740Z,100870.44
2023-01-06T21:42:17.199Z,100870.44
2023-01-06T21:47:18.632Z,100868.88
2023-01-06T21:52:20.286Z,100855.88
2023-01-06T21:57:21.931Z,100854.34
2023-01-06T22:02:25.179Z,100850.72
2023-01-06T22:07:27.539Z,100858.53
2023-01-06T22:12:29.063Z,100862.63
2023-01-06T22:17:30.820Z,100857.34
2023-01-06T22:22:34.425Z,100859.38
2023-01-06T22:27:36.178Z,100861.91
2023-01-06T22:32:48.532Z,100876.31
2023-01-06T22:37:50.628Z,100877.28
2023-01-06T22:42:52.137Z,100881.25
2023-01-06T22:47:53.750Z,100887.88
2023-01-06T22:52:55.780Z,100881.38
2023-01-06T22:57:57.280Z,100880.91
2023-01-06T23:02:58.770Z,100882.19
2023-01-06T23:08:00.422Z,100880.13
2023-01-06T23:13:02.068Z,100888.53
2023-01-06T23:18:04.550Z,100875.16
2023-01-06T23:23:06.113Z,100882.66
2023-01-06T23:28:07.552Z,100878.19
2023-01-06T23:33:09.010Z,100877.06
2023-01-06T23:38:10.457Z,100878.03
2023-01-06T23:43:12.016Z,100863.03
2023-01-06T23:48:13.508Z,100868.81
2023-01-06T23:53:15.034Z,100855.84
2023-01-06T23:58:16.670Z,100855.25
